sensor_id;sensor_type;location;lat;lon;timestamp;temperature;humidity
592;DHT22;283;53.608;10.046;2022-07-10T00:01:22;15.30;99.90
592;DHT22;283;53.608;10.046;2022-07-10T00:03:50;15.40;99.90
592;DHT22;283;53.608;10.046;2022-07-10T00:06:18;15.40;99.90
592;DHT22;283;53.608;10.046;2022-07-10T00:08:47;15.40;99.90
592;DHT22;283;53.608;10.046;2022-07-10T00:11:15;15.50;99.90
592;DHT22;283;53.608;10.046;2022-07-10T00:13:43;15.50;99.90
592;DHT22;283;53.608;10.046;2022-07-10T00:16:10;15.50;99.90
592;DHT22;283;53.608;10.046;2022-07-10T00:18:40;15.50;99.90
592;DHT22;283;53.608;10.046;2022-07-10T00:21:08;15.50;99.90
592;DHT22;283;53.608;10.046;2022-07-10T00:23:36;15.50;99.90
592;DHT22;283;53.608;10.046;2022-07-10T00:26:04;15.50;99.90
592;DHT22;283;53.608;10.046;2022-07-10T00:28:33;15.40;99.90
592;DHT22;283;53.608;10.046;2022-07-10T00:31:01;15.40;99.90
592;DHT22;283;53.608;10.046;2022-07-10T00:33:29;15.30;99.90
592;DHT22;283;53.608;10.046;2022-07-10T00:36:00;15.30;99.90
592;DHT22;283;53.608;10.046;2022-07-10T00:38:28;15.20;99.90
592;DHT22;283;53.608;10.046;2022-07-10T00:40:56;15.10;99.90
592;DHT22;283;53.608;10.046;2022-07-10T00:43:24;15.00;99.90
592;DHT22;283;53.608;10.046;2022-07-10T00:45:52;15.00;99.90
592;DHT22;283;53.608;10.046;2022-07-10T00:48:20;15.00;99.90
592;DHT22;283;53.608;10.046;2022-07-10T00:50:48;15.00;99.90
592;DHT22;283;53.608;10.046;2022-07-10T00:53:18;14.90;99.90
592;DHT22;283;53.608;10.046;2022-07-10T00:55:46;14.90;99.90
592;DHT22;283;53.608;10.046;2022-07-10T00:58:15;15.00;99.90
592;DHT22;283;53.608;10.046;2022-07-10T01:00:43;15.10;99.90
592;DHT22;283;53.608;10.046;2022-07-10T01:03:11;15.20;99.90
592;DHT22;283;53.608;10.046;2022-07-10T01:05:39;15.20;99.90
592;DHT22;283;53.608;10.046;2022-07-10T01:08:07;15.20;99.90
592;DHT22;283;53.608;10.046;2022-07-10T01:10:37;15.30;99.90
592;DHT22;283;53.608;10.046;2022-07-10T01:13:06;15.30;99.90
592;DHT22;283;53.608;10.046;2022-07-10T01:15:35;15.20;99.90
592;DHT22;283;53.608;10.046;2022-07-10T01:18:04;15.20;99.90
592;DHT22;283;53.608;10.046;2022-07-10T01:20:33;15.20;99.90
592;DHT22;283;53.608;10.046;2022-07-10T01:23:02;15.20;99.90
592;DHT22;283;53.608;10.046;2022-07-10T01:25:30;15.20;99.90
592;DHT22;283;53.608;10.046;2022-07-10T01:27:58;15.20;99.90
592;DHT22;283;53.608;10.046;2022-07-10T01:30:26;15.20;99.90
592;DHT22;283;53.608;10.046;2022-07-10T01:32:54;15.20;99.90
592;DHT22;283;53.608;10.046;2022-07-10T01:35:22;15.20;99.90
592;DHT22;283;53.608;10.046;2022-07-10T01:37:50;15.30;99.90
592;DHT22;283;53.608;10.046;2022-07-10T01:40:19;15.30;99.90
592;DHT22;283;53.608;10.046;2022-07-10T01:42:47;15.30;99.90
592;DHT22;283;53.608;10.046;2022-07-10T01:45:16;15.30;99.90
592;DHT22;283;53.608;10.046;2022-07-10T01:47:44;15.40;99.90
592;DHT22;283;53.608;10.046;2022-07-10T01:50:12;15.40;99.90
592;DHT22;283;53.608;10.046;2022-07-10T01:52:40;15.40;99.90
592;DHT22;283;53.608;10.046;2022-07-10T01:55:09;15.30;99.90
592;DHT22;283;53.608;10.046;2022-07-10T01:57:38;15.30;99.90
592;DHT22;283;53.608;10.046;2022-07-10T02:00:07;15.30;99.90
592;DHT22;283;53.608;10.046;2022-07-10T02:02:36;15.30;99.90
592;DHT22;283;53.608;10.046;2022-07-10T02:05:05;15.30;99.90
592;DHT22;283;53.608;10.046;2022-07-10T02:07:32;15.20;99.90
592;DHT22;283;53.608;10.046;2022-07-10T02:10:00;15.20;99.90
592;DHT22;283;53.608;10.046;2022-07-10T02:12:28;15.20;99.90
592;DHT22;283;53.608;10.046;2022-07-10T02:14:57;15.20;99.90
592;DHT22;283;53.608;10.046;2022-07-10T02:22:44;15.20;99.90
592;DHT22;283;53.608;10.046;2022-07-10T02:25:12;15.20;99.90
592;DHT22;283;53.608;10.046;2022-07-10T02:27:40;15.20;99.90
592;DHT22;283;53.608;10.046;2022-07-10T02:30:10;15.20;99.90
592;DHT22;283;53.608;10.046;2022-07-10T02:32:38;15.30;99.90
592;DHT22;283;53.608;10.046;2022-07-10T02:35:06;15.30;99.90
592;DHT22;283;53.608;10.046;2022-07-10T02:37:34;15.30;99.90
592;DHT22;283;53.608;10.046;2022-07-10T02:40:03;15.30;99.90
592;DHT22;283;53.608;10.046;2022-07-10T02:42:30;15.30;99.90
592;DHT22;283;53.608;10.046;2022-07-10T02:44:58;15.30;99.90
592;DHT22;283;53.608;10.046;2022-07-10T02:47:28;15.30;99.90
592;DHT22;283;53.608;10.046;2022-07-10T02:49:56;15.30;99.90
592;DHT22;283;53.608;10.046;2022-07-10T02:52:24;15.30;99.90
592;DHT22;283;53.608;10.046;2022-07-10T02:54:52;15.40;99.90
592;DHT22;283;53.608;10.046;2022-07-10T02:57:20;15.40;99.90
592;DHT22;283;53.608;10.046;2022-07-10T02:59:48;15.40;99.90
592;DHT22;283;53.608;10.046;2022-07-10T03:02:16;15.40;99.90
592;DHT22;283;53.608;10.046;2022-07-10T03:04:46;15.40;99.90
592;DHT22;283;53.608;10.046;2022-07-10T03:07:13;15.40;99.90
592;DHT22;283;53.608;10.046;2022-07-10T03:09:41;15.40;99.90
592;DHT22;283;53.608;10.046;2022-07-10T03:12:09;15.40;99.90
592;DHT22;283;53.608;10.046;2022-07-10T03:14:37;15.40;99.90
592;DHT22;283;53.608;10.046;2022-07-10T03:17:05;15.50;99.90
592;DHT22;283;53.608;10.046;2022-07-10T03:19:33;15.50;99.90
592;DHT22;283;53.608;10.046;2022-07-10T03:22:03;15.50;99.90
592;DHT22;283;53.608;10.046;2022-07-10T03:24:31;15.50;99.90
592;DHT22;283;53.608;10.046;2022-07-10T03:26:58;15.50;99.90
592;DHT22;283;53.608;10.046;2022-07-10T03:29:26;15.50;99.90
592;DHT22;283;53.608;10.046;2022-07-10T03:31:56;15.40;99.90
592;DHT22;283;53.608;10.046;2022-07-10T03:34:24;15.40;99.90
592;DHT22;283;53.608;10.046;2022-07-10T03:36:51;15.40;99.90
592;DHT22;283;53.608;10.046;2022-07-10T03:39:21;15.40;99.90
592;DHT22;283;53.608;10.046;2022-07-10T03:41:49;15.50;99.90
592;DHT22;283;53.608;10.046;2022-07-10T03:44:17;15.50;99.90
592;DHT22;283;53.608;10.046;2022-07-10T03:46:45;15.50;99.90
592;DHT22;283;53.608;10.046;2022-07-10T03:49:13;15.50;99.90
592;DHT22;283;53.608;10.046;2022-07-10T03:51:41;15.50;99.90
592;DHT22;283;53.608;10.046;2022-07-10T03:54:09;15.40;99.90
592;DHT22;283;53.608;10.046;2022-07-10T03:56:38;15.40;99.90
592;DHT22;283;53.608;10.046;2022-07-10T03:59:24;15.40;99.90
592;DHT22;283;53.608;10.046;2022-07-10T04:01:52;15.50;99.90
592;DHT22;283;53.608;10.046;2022-07-10T04:04:20;15.50;99.90
592;DHT22;283;53.608;10.046;2022-07-10T04:06:48;15.50;99.90
592;DHT22;283;53.608;10.046;2022-07-10T04:09:16;15.60;99.90
592;DHT22;283;53.608;10.046;2022-07-10T04:11:47;15.60;99.90
592;DHT22;283;53.608;10.046;2022-07-10T04:14:15;15.60;99.90
592;DHT22;283;53.608;10.046;2022-07-10T04:16:43;15.60;99.90
592;DHT22;283;53.608;10.046;2022-07-10T04:19:12;15.60;99.90
592;DHT22;283;53.608;10.046;2022-07-10T04:21:40;15.50;99.90
592;DHT22;283;53.608;10.046;2022-07-10T04:24:10;15.60;99.90
592;DHT22;283;53.608;10.046;2022-07-10T04:26:38;15.60;99.90
592;DHT22;283;53.608;10.046;2022-07-10T04:29:08;15.70;99.90
592;DHT22;283;53.608;10.046;2022-07-10T04:31:36;15.70;99.90
592;DHT22;283;53.608;10.046;2022-07-10T04:34:04;15.70;99.90
592;DHT22;283;53.608;10.046;2022-07-10T04:36:32;15.60;99.90
592;DHT22;283;53.608;10.046;2022-07-10T04:39:00;15.50;99.90
592;DHT22;283;53.608;10.046;2022-07-10T04:41:28;15.50;99.90
592;DHT22;283;53.608;10.046;2022-07-10T04:43:56;15.50;99.90
592;DHT22;283;53.608;10.046;2022-07-10T04:46:25;15.50;99.90
592;DHT22;283;53.608;10.046;2022-07-10T04:48:53;15.50;99.90
592;DHT22;283;53.608;10.046;2022-07-10T04:51:21;15.50;99.90
592;DHT22;283;53.608;10.046;2022-07-10T04:53:50;15.60;99.90
592;DHT22;283;53.608;10.046;2022-07-10T04:56:18;15.50;99.90
592;DHT22;283;53.608;10.046;2022-07-10T04:58:48;15.70;99.90
592;DHT22;283;53.608;10.046;2022-07-10T05:01:51;15.70;99.90
592;DHT22;283;53.608;10.046;2022-07-10T05:04:24;15.80;99.90
592;DHT22;283;53.608;10.046;2022-07-10T05:06:52;15.80;99.90
592;DHT22;283;53.608;10.046;2022-07-10T05:09:58;15.80;99.90
592;DHT22;283;53.608;10.046;2022-07-10T05:12:26;15.70;99.90
592;DHT22;283;53.608;10.046;2022-07-10T05:14:55;15.70;99.90
592;DHT22;283;53.608;10.046;2022-07-10T05:17:27;15.90;99.90
592;DHT22;283;53.608;10.046;2022-07-10T05:20:18;15.90;99.90
592;DHT22;283;53.608;10.046;2022-07-10T05:22:47;15.90;99.90
592;DHT22;283;53.608;10.046;2022-07-10T05:25:23;15.80;99.90
592;DHT22;283;53.608;10.046;2022-07-10T05:27:57;15.80;99.90
592;DHT22;283;53.608;10.046;2022-07-10T05:30:25;15.90;99.90
592;DHT22;283;53.608;10.046;2022-07-10T05:32:54;15.90;99.90
592;DHT22;283;53.608;10.046;2022-07-10T05:35:22;15.90;99.90
592;DHT22;283;53.608;10.046;2022-07-10T05:37:50;15.90;99.90
592;DHT22;283;53.608;10.046;2022-07-10T05:40:18;16.00;99.90
592;DHT22;283;53.608;10.046;2022-07-10T05:42:46;16.00;99.90
592;DHT22;283;53.608;10.046;2022-07-10T05:45:13;16.10;99.90
592;DHT22;283;53.608;10.046;2022-07-10T05:47:42;16.20;99.90
592;DHT22;283;53.608;10.046;2022-07-10T05:50:12;16.20;99.90
592;DHT22;283;53.608;10.046;2022-07-10T05:52:40;16.20;99.90
592;DHT22;283;53.608;10.046;2022-07-10T05:55:08;16.30;99.90
592;DHT22;283;53.608;10.046;2022-07-10T05:57:36;16.30;99.90
592;DHT22;283;53.608;10.046;2022-07-10T06:00:06;16.30;99.90
592;DHT22;283;53.608;10.046;2022-07-10T06:02:34;16.30;99.90
592;DHT22;283;53.608;10.046;2022-07-10T06:05:02;16.30;99.90
592;DHT22;283;53.608;10.046;2022-07-10T06:07:31;16.40;99.90
592;DHT22;283;53.608;10.046;2022-07-10T06:09:59;16.40;99.90
592;DHT22;283;53.608;10.046;2022-07-10T06:12:37;16.50;99.90
592;DHT22;283;53.608;10.046;2022-07-10T06:15:18;16.50;99.90
592;DHT22;283;53.608;10.046;2022-07-10T06:17:46;16.60;99.90
592;DHT22;283;53.608;10.046;2022-07-10T06:20:14;16.70;99.90
592;DHT22;283;53.608;10.046;2022-07-10T06:22:43;16.60;99.90
592;DHT22;283;53.608;10.046;2022-07-10T06:25:11;16.60;99.90
592;DHT22;283;53.608;10.046;2022-07-10T06:27:39;16.60;99.90
592;DHT22;283;53.608;10.046;2022-07-10T06:30:08;16.50;99.90
592;DHT22;283;53.608;10.046;2022-07-10T06:32:36;16.60;99.90
592;DHT22;283;53.608;10.046;2022-07-10T06:35:04;16.60;99.90
592;DHT22;283;53.608;10.046;2022-07-10T06:37:34;16.60;99.90
592;DHT22;283;53.608;10.046;2022-07-10T06:40:04;16.80;99.90
592;DHT22;283;53.608;10.046;2022-07-10T06:42:32;16.90;99.90
592;DHT22;283;53.608;10.046;2022-07-10T06:45:01;17.00;99.90
592;DHT22;283;53.608;10.046;2022-07-10T06:47:28;17.00;99.90
592;DHT22;283;53.608;10.046;2022-07-10T06:50:14;17.00;99.90
592;DHT22;283;53.608;10.046;2022-07-10T06:52:42;17.00;99.90
592;DHT22;283;53.608;10.046;2022-07-10T06:55:12;17.10;99.90
592;DHT22;283;53.608;10.046;2022-07-10T06:57:40;17.10;99.90
592;DHT22;283;53.608;10.046;2022-07-10T07:00:08;17.10;99.90
592;DHT22;283;53.608;10.046;2022-07-10T07:02:38;16.90;99.90
592;DHT22;283;53.608;10.046;2022-07-10T07:05:06;16.90;99.90
592;DHT22;283;53.608;10.046;2022-07-10T07:07:36;17.00;99.90
592;DHT22;283;53.608;10.046;2022-07-10T07:10:05;17.00;99.90
592;DHT22;283;53.608;10.046;2022-07-10T07:12:35;16.90;99.90
592;DHT22;283;53.608;10.046;2022-07-10T07:15:04;17.10;99.90
592;DHT22;283;53.608;10.046;2022-07-10T07:17:32;17.30;99.90
592;DHT22;283;53.608;10.046;2022-07-10T07:20:13;17.40;99.90
592;DHT22;283;53.608;10.046;2022-07-10T07:22:58;17.30;99.90
592;DHT22;283;53.608;10.046;2022-07-10T07:25:38;17.10;99.90
592;DHT22;283;53.608;10.046;2022-07-10T07:28:10;17.00;99.90
592;DHT22;283;53.608;10.046;2022-07-10T07:30:38;16.90;99.90
592;DHT22;283;53.608;10.046;2022-07-10T07:33:05;16.80;99.90
592;DHT22;283;53.608;10.046;2022-07-10T07:35:33;16.80;99.90
592;DHT22;283;53.608;10.046;2022-07-10T07:38:02;16.90;99.90
592;DHT22;283;53.608;10.046;2022-07-10T07:40:30;17.10;99.90
592;DHT22;283;53.608;10.046;2022-07-10T07:42:58;17.10;99.90
592;DHT22;283;53.608;10.046;2022-07-10T07:45:27;17.20;99.90
592;DHT22;283;53.608;10.046;2022-07-10T07:47:56;17.20;99.90
592;DHT22;283;53.608;10.046;2022-07-10T07:50:28;17.30;99.90
592;DHT22;283;53.608;10.046;2022-07-10T07:52:56;17.40;99.90
592;DHT22;283;53.608;10.046;2022-07-10T07:55:25;17.60;99.90
592;DHT22;283;53.608;10.046;2022-07-10T07:57:54;17.60;99.90
592;DHT22;283;53.608;10.046;2022-07-10T08:00:23;17.50;99.90
592;DHT22;283;53.608;10.046;2022-07-10T08:02:54;17.60;99.90
592;DHT22;283;53.608;10.046;2022-07-10T08:05:22;17.60;99.90
592;DHT22;283;53.608;10.046;2022-07-10T08:07:52;17.60;99.90
592;DHT22;283;53.608;10.046;2022-07-10T08:10:21;17.50;99.90
592;DHT22;283;53.608;10.046;2022-07-10T08:12:49;17.50;99.90
592;DHT22;283;53.608;10.046;2022-07-10T08:15:19;17.40;99.90
592;DHT22;283;53.608;10.046;2022-07-10T08:17:49;17.50;99.90
592;DHT22;283;53.608;10.046;2022-07-10T08:20:19;17.60;99.90
592;DHT22;283;53.608;10.046;2022-07-10T08:22:48;17.80;99.90
592;DHT22;283;53.608;10.046;2022-07-10T08:25:24;18.00;99.90
592;DHT22;283;53.608;10.046;2022-07-10T08:27:52;18.00;99.90
592;DHT22;283;53.608;10.046;2022-07-10T08:30:20;18.00;99.90
592;DHT22;283;53.608;10.046;2022-07-10T08:32:48;17.90;99.90
592;DHT22;283;53.608;10.046;2022-07-10T08:35:16;17.80;99.90
592;DHT22;283;53.608;10.046;2022-07-10T08:37:45;17.80;99.90
592;DHT22;283;53.608;10.046;2022-07-10T08:40:15;17.90;99.90
592;DHT22;283;53.608;10.046;2022-07-10T08:42:43;18.20;99.90
592;DHT22;283;53.608;10.046;2022-07-10T08:45:13;18.30;99.90
592;DHT22;283;53.608;10.046;2022-07-10T08:47:42;18.50;99.90
592;DHT22;283;53.608;10.046;2022-07-10T08:50:18;18.50;99.90
592;DHT22;283;53.608;10.046;2022-07-10T08:52:52;18.70;99.90
592;DHT22;283;53.608;10.046;2022-07-10T08:55:26;18.80;99.90
592;DHT22;283;53.608;10.046;2022-07-10T08:57:54;18.70;99.90
592;DHT22;283;53.608;10.046;2022-07-10T09:00:23;18.70;99.90
592;DHT22;283;53.608;10.046;2022-07-10T09:02:53;18.70;99.90
592;DHT22;283;53.608;10.046;2022-07-10T09:05:22;18.70;99.90
592;DHT22;283;53.608;10.046;2022-07-10T09:07:52;18.70;99.90
592;DHT22;283;53.608;10.046;2022-07-10T09:10:23;18.80;99.90
592;DHT22;283;53.608;10.046;2022-07-10T09:12:53;18.80;99.90
592;DHT22;283;53.608;10.046;2022-07-10T09:15:22;18.60;99.90
592;DHT22;283;53.608;10.046;2022-07-10T09:17:55;18.40;99.90
592;DHT22;283;53.608;10.046;2022-07-10T09:20:25;18.30;99.90
592;DHT22;283;53.608;10.046;2022-07-10T09:22:56;18.40;99.90
592;DHT22;283;53.608;10.046;2022-07-10T09:25:30;18.50;99.90
592;DHT22;283;53.608;10.046;2022-07-10T09:27:59;18.70;99.90
592;DHT22;283;53.608;10.046;2022-07-10T09:30:33;18.90;99.90
592;DHT22;283;53.608;10.046;2022-07-10T09:33:21;19.00;99.90
592;DHT22;283;53.608;10.046;2022-07-10T09:36:00;19.20;99.90
592;DHT22;283;53.608;10.046;2022-07-10T09:38:55;19.20;99.90
592;DHT22;283;53.608;10.046;2022-07-10T09:41:26;19.10;99.90
592;DHT22;283;53.608;10.046;2022-07-10T09:43:55;19.10;99.90
592;DHT22;283;53.608;10.046;2022-07-10T09:46:25;19.00;99.90
592;DHT22;283;53.608;10.046;2022-07-10T09:49:07;19.00;99.90
592;DHT22;283;53.608;10.046;2022-07-10T09:51:37;19.10;99.90
592;DHT22;283;53.608;10.046;2022-07-10T09:54:14;19.20;99.90
592;DHT22;283;53.608;10.046;2022-07-10T09:56:44;19.20;99.90
592;DHT22;283;53.608;10.046;2022-07-10T09:59:14;19.20;99.90
592;DHT22;283;53.608;10.046;2022-07-10T10:01:44;19.40;99.90
592;DHT22;283;53.608;10.046;2022-07-10T10:04:14;19.50;99.90
592;DHT22;283;53.608;10.046;2022-07-10T10:06:43;19.50;99.90
592;DHT22;283;53.608;10.046;2022-07-10T10:09:21;19.50;99.90
592;DHT22;283;53.608;10.046;2022-07-10T10:11:53;19.70;99.90
592;DHT22;283;53.608;10.046;2022-07-10T10:14:23;19.80;99.90
592;DHT22;283;53.608;10.046;2022-07-10T10:16:55;19.80;99.90
592;DHT22;283;53.608;10.046;2022-07-10T10:19:23;19.80;99.90
592;DHT22;283;53.608;10.046;2022-07-10T10:22:09;19.90;99.90
592;DHT22;283;53.608;10.046;2022-07-10T10:24:43;19.80;99.90
592;DHT22;283;53.608;10.046;2022-07-10T10:27:13;19.80;99.90
592;DHT22;283;53.608;10.046;2022-07-10T10:29:41;19.80;99.90
592;DHT22;283;53.608;10.046;2022-07-10T10:32:10;19.70;99.90
592;DHT22;283;53.608;10.046;2022-07-10T10:34:40;19.60;99.90
592;DHT22;283;53.608;10.046;2022-07-10T10:37:34;19.60;99.90
592;DHT22;283;53.608;10.046;2022-07-10T10:40:07;19.70;99.90
592;DHT22;283;53.608;10.046;2022-07-10T10:42:38;19.70;99.90
592;DHT22;283;53.608;10.046;2022-07-10T10:45:25;19.80;99.90
592;DHT22;283;53.608;10.046;2022-07-10T10:47:57;19.70;99.90
592;DHT22;283;53.608;10.046;2022-07-10T10:50:46;19.70;99.90
592;DHT22;283;53.608;10.046;2022-07-10T10:53:16;19.70;99.90
592;DHT22;283;53.608;10.046;2022-07-10T10:56:25;19.70;99.90
592;DHT22;283;53.608;10.046;2022-07-10T10:58:52;19.90;99.90
592;DHT22;283;53.608;10.046;2022-07-10T11:01:25;20.00;99.90
592;DHT22;283;53.608;10.046;2022-07-10T11:04:12;20.10;99.90
592;DHT22;283;53.608;10.046;2022-07-10T11:06:42;20.10;99.90
592;DHT22;283;53.608;10.046;2022-07-10T11:09:27;20.00;99.90
592;DHT22;283;53.608;10.046;2022-07-10T11:12:04;20.00;99.90
592;DHT22;283;53.608;10.046;2022-07-10T11:14:35;20.00;99.90
592;DHT22;283;53.608;10.046;2022-07-10T11:17:04;19.90;99.90
592;DHT22;283;53.608;10.046;2022-07-10T11:19:33;19.70;99.90
592;DHT22;283;53.608;10.046;2022-07-10T11:25:24;19.90;99.90
592;DHT22;283;53.608;10.046;2022-07-10T11:28:04;20.10;99.90
592;DHT22;283;53.608;10.046;2022-07-10T11:30:46;20.20;99.90
592;DHT22;283;53.608;10.046;2022-07-10T11:33:14;20.30;99.90
592;DHT22;283;53.608;10.046;2022-07-10T11:35:47;20.20;99.90
592;DHT22;283;53.608;10.046;2022-07-10T11:38:19;20.10;99.90
592;DHT22;283;53.608;10.046;2022-07-10T11:40:47;20.10;99.90
592;DHT22;283;53.608;10.046;2022-07-10T11:43:16;20.00;99.90
592;DHT22;283;53.608;10.046;2022-07-10T11:45:46;20.20;99.90
592;DHT22;283;53.608;10.046;2022-07-10T11:48:18;20.20;99.90
592;DHT22;283;53.608;10.046;2022-07-10T11:50:46;20.30;99.90
592;DHT22;283;53.608;10.046;2022-07-10T11:53:22;20.40;99.90
592;DHT22;283;53.608;10.046;2022-07-10T11:55:50;20.50;99.90
592;DHT22;283;53.608;10.046;2022-07-10T11:58:20;20.40;99.90
592;DHT22;283;53.608;10.046;2022-07-10T12:00:59;20.30;99.90
592;DHT22;283;53.608;10.046;2022-07-10T12:03:28;20.30;99.90
592;DHT22;283;53.608;10.046;2022-07-10T12:06:02;20.30;99.90
592;DHT22;283;53.608;10.046;2022-07-10T12:08:42;20.50;99.90
592;DHT22;283;53.608;10.046;2022-07-10T12:11:12;20.70;99.90
592;DHT22;283;53.608;10.046;2022-07-10T12:13:42;20.80;99.90
592;DHT22;283;53.608;10.046;2022-07-10T12:16:10;20.90;99.90
592;DHT22;283;53.608;10.046;2022-07-10T12:18:39;21.00;99.90
592;DHT22;283;53.608;10.046;2022-07-10T12:21:10;21.10;99.90
592;DHT22;283;53.608;10.046;2022-07-10T12:23:39;21.20;99.90
592;DHT22;283;53.608;10.046;2022-07-10T12:26:08;21.20;99.90
592;DHT22;283;53.608;10.046;2022-07-10T12:28:56;21.20;99.90
592;DHT22;283;53.608;10.046;2022-07-10T12:31:27;21.10;99.90
592;DHT22;283;53.608;10.046;2022-07-10T12:33:56;21.00;99.90
592;DHT22;283;53.608;10.046;2022-07-10T12:36:44;20.90;99.90
592;DHT22;283;53.608;10.046;2022-07-10T12:39:13;20.70;99.90
592;DHT22;283;53.608;10.046;2022-07-10T12:41:57;20.50;99.90
592;DHT22;283;53.608;10.046;2022-07-10T12:44:36;20.40;99.90
592;DHT22;283;53.608;10.046;2022-07-10T12:47:05;20.40;99.90
592;DHT22;283;53.608;10.046;2022-07-10T12:49:52;20.50;99.90
592;DHT22;283;53.608;10.046;2022-07-10T12:52:25;20.40;99.90
592;DHT22;283;53.608;10.046;2022-07-10T12:55:10;20.50;99.90
592;DHT22;283;53.608;10.046;2022-07-10T12:57:50;20.60;99.90
592;DHT22;283;53.608;10.046;2022-07-10T13:00:21;20.60;99.90
592;DHT22;283;53.608;10.046;2022-07-10T13:02:56;20.50;99.90
592;DHT22;283;53.608;10.046;2022-07-10T13:05:29;20.40;99.90
592;DHT22;283;53.608;10.046;2022-07-10T13:08:10;20.40;99.90
592;DHT22;283;53.608;10.046;2022-07-10T13:10:39;20.50;99.90
592;DHT22;283;53.608;10.046;2022-07-10T13:13:08;20.60;99.90
592;DHT22;283;53.608;10.046;2022-07-10T13:15:38;20.60;99.90
592;DHT22;283;53.608;10.046;2022-07-10T13:18:13;20.60;99.90
592;DHT22;283;53.608;10.046;2022-07-10T13:20:41;20.60;99.90
592;DHT22;283;53.608;10.046;2022-07-10T13:23:09;20.60;99.90
592;DHT22;283;53.608;10.046;2022-07-10T13:25:37;20.60;99.90
592;DHT22;283;53.608;10.046;2022-07-10T13:28:06;20.70;99.90
592;DHT22;283;53.608;10.046;2022-07-10T13:30:34;20.80;99.90
592;DHT22;283;53.608;10.046;2022-07-10T13:33:03;20.80;99.90
592;DHT22;283;53.608;10.046;2022-07-10T13:35:33;20.80;99.90
592;DHT22;283;53.608;10.046;2022-07-10T13:38:01;20.70;99.90
592;DHT22;283;53.608;10.046;2022-07-10T13:40:31;20.60;99.90
592;DHT22;283;53.608;10.046;2022-07-10T13:42:58;20.50;99.90
592;DHT22;283;53.608;10.046;2022-07-10T13:45:27;20.60;99.90
592;DHT22;283;53.608;10.046;2022-07-10T13:47:59;20.50;99.90
592;DHT22;283;53.608;10.046;2022-07-10T13:50:28;20.40;99.90
592;DHT22;283;53.608;10.046;2022-07-10T13:52:56;20.40;99.90
592;DHT22;283;53.608;10.046;2022-07-10T13:55:24;20.50;99.90
592;DHT22;283;53.608;10.046;2022-07-10T13:57:52;20.50;99.90
592;DHT22;283;53.608;10.046;2022-07-10T14:00:20;20.60;99.90
592;DHT22;283;53.608;10.046;2022-07-10T14:02:48;20.60;99.90
592;DHT22;283;53.608;10.046;2022-07-10T14:05:16;20.50;99.90
592;DHT22;283;53.608;10.046;2022-07-10T14:07:45;20.50;99.90
592;DHT22;283;53.608;10.046;2022-07-10T14:10:13;20.50;99.90
592;DHT22;283;53.608;10.046;2022-07-10T14:12:42;20.50;99.90
592;DHT22;283;53.608;10.046;2022-07-10T14:15:10;20.40;99.90
592;DHT22;283;53.608;10.046;2022-07-10T14:17:38;20.40;99.90
592;DHT22;283;53.608;10.046;2022-07-10T14:20:07;20.40;99.90
592;DHT22;283;53.608;10.046;2022-07-10T14:22:36;20.40;99.90
592;DHT22;283;53.608;10.046;2022-07-10T14:25:06;20.30;99.90
592;DHT22;283;53.608;10.046;2022-07-10T14:27:35;20.20;99.90
592;DHT22;283;53.608;10.046;2022-07-10T14:30:03;20.10;99.90
592;DHT22;283;53.608;10.046;2022-07-10T14:32:31;20.10;99.90
592;DHT22;283;53.608;10.046;2022-07-10T14:34:59;20.10;99.90
592;DHT22;283;53.608;10.046;2022-07-10T14:37:27;20.00;99.90
592;DHT22;283;53.608;10.046;2022-07-10T14:39:55;20.10;99.90
592;DHT22;283;53.608;10.046;2022-07-10T14:42:24;20.00;99.90
592;DHT22;283;53.608;10.046;2022-07-10T14:44:52;20.00;99.90
592;DHT22;283;53.608;10.046;2022-07-10T14:47:20;19.90;99.90
592;DHT22;283;53.608;10.046;2022-07-10T14:49:48;19.80;99.90
592;DHT22;283;53.608;10.046;2022-07-10T14:52:16;19.90;99.90
592;DHT22;283;53.608;10.046;2022-07-10T14:54:47;19.90;99.90
592;DHT22;283;53.608;10.046;2022-07-10T14:57:16;19.80;99.90
592;DHT22;283;53.608;10.046;2022-07-10T14:59:45;19.80;99.90
592;DHT22;283;53.608;10.046;2022-07-10T15:02:13;19.70;99.90
592;DHT22;283;53.608;10.046;2022-07-10T15:04:41;19.70;99.90
592;DHT22;283;53.608;10.046;2022-07-10T15:07:09;19.70;99.90
592;DHT22;283;53.608;10.046;2022-07-10T15:09:37;19.60;99.90
592;DHT22;283;53.608;10.046;2022-07-10T15:12:05;19.60;99.90
592;DHT22;283;53.608;10.046;2022-07-10T15:14:34;19.60;99.90
592;DHT22;283;53.608;10.046;2022-07-10T15:17:04;19.50;99.90
592;DHT22;283;53.608;10.046;2022-07-10T15:19:32;19.30;99.90
592;DHT22;283;53.608;10.046;2022-07-10T15:21:59;19.20;99.90
592;DHT22;283;53.608;10.046;2022-07-10T15:24:27;19.20;99.90
592;DHT22;283;53.608;10.046;2022-07-10T15:26:55;19.20;99.90
592;DHT22;283;53.608;10.046;2022-07-10T15:29:23;19.20;99.90
592;DHT22;283;53.608;10.046;2022-07-10T15:31:52;19.10;99.90
592;DHT22;283;53.608;10.046;2022-07-10T15:34:26;19.10;99.90
592;DHT22;283;53.608;10.046;2022-07-10T15:36:54;19.20;99.90
592;DHT22;283;53.608;10.046;2022-07-10T15:39:22;19.40;99.90
592;DHT22;283;53.608;10.046;2022-07-10T15:41:50;19.60;99.90
592;DHT22;283;53.608;10.046;2022-07-10T15:44:18;19.70;99.90
592;DHT22;283;53.608;10.046;2022-07-10T15:46:46;19.70;99.90
592;DHT22;283;53.608;10.046;2022-07-10T15:49:14;19.60;99.90
592;DHT22;283;53.608;10.046;2022-07-10T15:51:43;19.60;99.90
592;DHT22;283;53.608;10.046;2022-07-10T15:54:11;19.40;99.90
592;DHT22;283;53.608;10.046;2022-07-10T15:56:39;19.30;99.90
592;DHT22;283;53.608;10.046;2022-07-10T15:59:08;19.20;99.90
592;DHT22;283;53.608;10.046;2022-07-10T16:01:36;19.10;99.90
592;DHT22;283;53.608;10.046;2022-07-10T16:04:04;19.00;99.90
592;DHT22;283;53.608;10.046;2022-07-10T16:06:32;18.90;99.90
592;DHT22;283;53.608;10.046;2022-07-10T16:09:01;18.80;99.90
592;DHT22;283;53.608;10.046;2022-07-10T16:11:29;18.80;99.90
592;DHT22;283;53.608;10.046;2022-07-10T16:13:57;18.90;99.90
592;DHT22;283;53.608;10.046;2022-07-10T16:16:25;18.80;99.90
592;DHT22;283;53.608;10.046;2022-07-10T16:18:53;18.70;99.90
592;DHT22;283;53.608;10.046;2022-07-10T16:21:21;18.70;99.90
592;DHT22;283;53.608;10.046;2022-07-10T16:23:49;18.70;99.90
592;DHT22;283;53.608;10.046;2022-07-10T16:26:19;18.80;99.90
592;DHT22;283;53.608;10.046;2022-07-10T16:28:46;18.90;99.90
592;DHT22;283;53.608;10.046;2022-07-10T16:31:16;18.90;99.90
592;DHT22;283;53.608;10.046;2022-07-10T16:33:44;19.00;99.90
592;DHT22;283;53.608;10.046;2022-07-10T16:36:13;19.00;99.90
592;DHT22;283;53.608;10.046;2022-07-10T16:38:41;19.00;99.90
592;DHT22;283;53.608;10.046;2022-07-10T16:41:10;18.90;99.90
592;DHT22;283;53.608;10.046;2022-07-10T16:43:39;19.00;99.90
592;DHT22;283;53.608;10.046;2022-07-10T16:46:08;19.00;99.90